Time;durP1;ratioP1;P1;durP2;ratioP2;P2;SDS_P1;SDS_P2;PMS_P1;PMS_P2;Temp;Humidity;BMP_temperature;BMP_pressure;BME280_temperature;BME280_humidity;BME280_pressure;Samples;Min_cycle;Max_cycle;Signal;HPM_P1;HPM_P2
2022/01/26 00:07:55;;;;;;;7.93;3.67;;;3.90;99.90;2.90;101022;;;;545060;258;24236;-81
2022/01/26 00:10:25;;;;;;;13.90;4.07;;;3.90;99.90;2.90;101022;;;;541994;262;24145;-82
2022/01/26 00:12:50;;;;;;;9.37;3.97;;;3.90;99.90;2.90;101021;;;;547738;262;24284;-81
2022/01/26 00:15:21;;;;;;;5.13;2.63;;;3.90;99.90;2.90;101029;;;;544849;263;24170;-81
2022/01/26 00:17:49;;;;;;;8.60;3.70;;;3.90;99.90;2.90;101024;;;;547494;262;24171;-82
2022/01/26 00:20:21;;;;;;;9.80;3.33;;;3.90;99.90;2.90;101020;;;;544633;263;24170;-81
2022/01/26 00:25:43;;;;;;;7.93;3.57;;;3.90;99.90;2.90;101016;;;;547669;260;24169;-81
2022/01/26 00:38:31;;;;;;;5.13;3.10;;;3.90;99.90;2.80;101004;;;;544673;260;24172;-81
2022/01/26 00:38:41;;;;;;;5.33;2.77;;;3.90;99.90;2.80;101001;;;;544599;261;24157;-82
2022/01/26 00:41:06;;;;;;;4.43;3.37;;;3.90;99.90;2.80;100995;;;;544150;258;24195;-81
2022/01/26 00:43:31;;;;;;;4.83;2.07;;;3.90;99.90;2.80;100996;;;;539589;264;24183;-83
2022/01/26 00:46:00;;;;;;;8.07;2.40;;;3.90;99.90;2.80;100994;;;;541648;264;24165;-82
2022/01/26 00:48:30;;;;;;;7.67;2.43;;;3.80;99.90;2.80;100998;;;;547397;260;24226;-81
2022/01/26 00:50:59;;;;;;;2.70;2.47;;;3.80;99.90;2.70;100999;;;;539447;264;24228;-82
2022/01/26 00:53:26;;;;;;;4.90;2.57;;;3.70;99.90;2.70;100998;;;;541412;264;24160;-82
2022/01/26 00:55:55;;;;;;;6.63;2.80;;;3.70;99.90;2.70;100994;;;;539654;264;24208;-83
2022/01/26 00:58:20;;;;;;;3.70;2.67;;;3.70;99.90;2.70;100992;;;;547274;262;24194;-81
2022/01/26 01:00:48;;;;;;;3.33;2.20;;;3.70;99.90;2.60;100995;;;;539581;263;24180;-82
2022/01/26 01:03:19;;;;;;;4.37;2.97;;;3.60;99.90;2.60;100992;;;;547133;260;24160;-82
2022/01/26 01:05:53;;;;;;;6.63;2.17;;;3.70;99.90;2.70;100996;;;;541134;262;24156;-81
2022/01/26 01:08:16;;;;;;;7.77;2.43;;;3.70;99.90;2.70;100998;;;;547831;258;25311;-82
2022/01/26 01:10:40;;;;;;;7.60;2.53;;;3.70;99.90;2.70;100995;;;;548589;260;24202;-82
2022/01/26 01:13:14;;;;;;;9.20;2.30;;;3.70;99.90;2.70;100997;;;;548298;260;24175;-81
2022/01/26 01:15:36;;;;;;;6.07;2.40;;;3.70;99.90;2.70;100990;;;;540253;263;24201;-80
2022/01/26 01:18:13;;;;;;;6.53;3.37;;;3.60;99.90;2.70;100996;;;;543213;262;35723;-81
2022/01/26 01:31:30;;;;;;;4.50;2.73;;;3.70;99.90;2.70;100991;;;;553758;258;24164;-82
2022/01/26 01:33:48;;;;;;;8.07;2.67;;;3.70;99.90;2.70;100991;;;;542528;259;24164;-80
2022/01/26 01:36:16;;;;;;;7.43;2.70;;;3.70;99.90;2.70;100985;;;;547584;260;24279;-82
2022/01/26 01:38:42;;;;;;;9.50;3.63;;;3.70;99.90;2.70;100977;;;;541629;262;24200;-82
2022/01/26 01:41:09;;;;;;;8.07;2.70;;;3.70;99.90;2.70;100973;;;;539796;264;24184;-80
2022/01/26 01:43:37;;;;;;;9.70;3.30;;;3.80;99.90;2.80;100973;;;;539885;264;24170;-82
2022/01/26 01:46:05;;;;;;;6.33;2.63;;;3.80;99.90;2.80;100965;;;;544551;263;24160;-82
2022/01/26 01:48:33;;;;;;;5.37;3.10;;;3.70;99.90;2.70;100955;;;;539636;264;24205;-82
2022/01/26 01:51:03;;;;;;;6.83;2.63;;;3.70;99.90;2.70;100972;;;;547423;261;24196;-82
2022/01/26 01:53:41;;;;;;;6.27;2.90;;;3.70;99.90;2.70;100965;;;;547116;262;24256;-82
2022/01/26 01:56:06;;;;;;;4.70;3.30;;;3.70;99.90;2.70;100977;;;;544491;263;24218;-81
2022/01/26 01:58:37;;;;;;;6.00;2.47;;;3.70;99.90;2.70;100974;;;;539577;264;24204;-82
2022/01/26 02:01:06;;;;;;;7.83;3.23;;;3.70;99.90;2.70;100963;;;;539297;263;24177;-82
2022/01/26 02:03:34;;;;;;;8.20;3.70;;;3.70;99.90;2.70;100965;;;;539241;264;24234;-83
2022/01/26 02:05:58;;;;;;;5.30;3.10;;;3.70;99.90;2.70;100967;;;;539059;264;24333;-82
2022/01/26 02:08:26;;;;;;;5.63;3.13;;;3.70;99.90;2.70;100954;;;;539665;264;24191;-83
2022/01/26 02:10:55;;;;;;;6.50;3.27;;;3.70;99.90;2.70;100954;;;;544534;263;24180;-81
2022/01/26 02:13:27;;;;;;;6.30;2.90;;;3.70;99.90;2.70;100957;;;;547452;262;24237;-82
2022/01/26 02:16:45;;;;;;;6.10;3.40;;;3.70;99.90;2.70;100954;;;;547465;262;24284;-82
2022/01/26 02:18:43;;;;;;;5.33;2.90;;;3.70;99.90;2.70;100953;;;;540186;263;24165;-83
2022/01/26 02:21:29;;;;;;;5.30;3.17;;;3.70;99.90;2.70;100951;;;;540000;263;24180;-82
2022/01/26 02:51:48;;;;;;;5.43;2.70;;;3.60;99.90;2.60;100925;;;;541956;263;24150;-81
2022/01/26 02:59:26;;;;;;;4.93;2.83;;;3.40;99.90;2.40;100927;;;;547413;262;24228;-82
2022/01/26 03:01:46;;;;;;;6.43;3.47;;;3.40;99.90;2.40;100928;;;;538482;264;24203;-81
2022/01/26 03:04:24;;;;;;;4.70;2.80;;;3.40;99.90;2.30;100922;;;;547047;260;24177;-82
2022/01/26 03:09:34;;;;;;;3.50;2.40;;;3.30;99.90;2.40;100915;;;;544562;260;24168;-83
2022/01/26 03:11:59;;;;;;;9.60;2.60;;;3.30;99.90;2.30;100911;;;;547420;261;24171;-82
2022/01/26 03:19:57;;;;;;;7.97;3.07;;;3.30;99.90;2.20;100893;;;;541626;264;24141;-81
2022/01/26 03:30:37;;;;;;;10.20;4.50;;;2.90;99.90;1.90;100887;;;;539640;264;24193;-82
2022/01/26 03:35:49;;;;;;;4.57;2.87;;;2.80;99.90;1.60;100881;;;;540567;263;24152;-82
2022/01/26 03:38:19;;;;;;;5.33;2.40;;;2.50;99.90;1.50;100874;;;;548252;260;24203;-81
2022/01/26 03:40:42;;;;;;;7.30;2.43;;;2.50;99.90;1.40;100869;;;;548029;259;24149;-82
2022/01/26 03:43:10;;;;;;;6.50;2.80;;;2.40;99.90;1.30;100871;;;;548001;260;24147;-83
2022/01/26 03:45:37;;;;;;;6.40;2.03;;;2.30;99.90;1.10;100874;;;;548036;262;24203;-81
2022/01/26 03:48:05;;;;;;;7.63;3.20;;;2.20;99.90;1.00;100876;;;;547823;262;24211;-83
2022/01/26 03:50:33;;;;;;;6.67;2.90;;;2.10;99.90;1.00;100873;;;;547696;262;24199;-82
2022/01/26 03:53:01;;;;;;;8.20;2.27;;;2.00;99.90;1.00;100872;;;;547616;262;24234;-83
2022/01/26 03:55:29;;;;;;;4.63;2.40;;;2.00;99.90;1.00;100876;;;;547602;262;24239;-82
2022/01/26 03:57:57;;;;;;;4.00;2.50;;;2.00;99.90;1.00;100867;;;;547670;262;24186;-81
2022/01/26 04:00:25;;;;;;;8.53;2.83;;;2.00;99.90;1.00;100866;;;;547668;260;24172;-82
2022/01/26 04:02:53;;;;;;;7.77;2.57;;;2.00;99.90;1.10;100878;;;;547307;262;25206;-82
2022/01/26 04:05:21;;;;;;;6.17;3.10;;;2.10;99.90;1.10;100868;;;;547306;261;24176;-82
2022/01/26 04:07:55;;;;;;;6.50;3.07;;;2.10;99.90;1.10;100859;;;;547223;262;24169;-80
2022/01/26 04:10:31;;;;;;;4.83;2.50;;;2.10;99.90;1.00;100865;;;;547092;262;24220;-79
2022/01/26 04:12:44;;;;;;;2.67;2.47;;;2.10;99.90;1.00;100863;;;;547027;257;24211;-80
2022/01/26 04:15:24;;;;;;;5.27;3.03;;;2.00;99.90;0.90;100857;;;;541332;264;24221;-81
2022/01/26 04:17:40;;;;;;;6.50;2.87;;;2.00;99.90;0.90;100857;;;;546960;260;24188;-81
2022/01/26 04:20:08;;;;;;;6.83;2.87;;;1.90;99.90;0.80;100848;;;;547176;262;24133;-81
2022/01/26 04:22:49;;;;;;;6.00;2.93;;;1.90;99.90;0.80;100851;;;;544320;263;24218;-82
2022/01/26 04:25:07;;;;;;;5.37;2.90;;;1.90;99.90;0.80;100850;;;;547256;260;24160;-80
2022/01/26 04:27:40;;;;;;;9.47;2.67;;;1.80;99.90;0.80;100849;;;;539104;264;24165;-81
2022/01/26 04:30:03;;;;;;;4.37;2.90;;;1.80;99.90;0.80;100852;;;;547154;261;24227;-81
2022/01/26 04:32:31;;;;;;;5.63;2.87;;;1.80;99.90;0.80;100844;;;;547209;262;24161;-83
2022/01/26 04:34:58;;;;;;;6.50;2.77;;;1.80;99.90;0.80;100834;;;;547074;262;24149;-82
2022/01/26 04:37:41;;;;;;;8.67;3.13;;;1.80;99.90;0.80;100830;;;;547247;262;24185;-82
2022/01/26 04:40:04;;;;;;;3.33;2.67;;;1.80;99.90;0.80;100821;;;;547170;259;24197;-82
2022/01/26 04:42:44;;;;;;;13.83;3.07;;;1.80;99.90;0.80;100827;;;;539822;262;24157;-81
2022/01/26 04:45:06;;;;;;;3.40;2.47;;;1.80;99.90;0.70;100824;;;;548538;260;24149;-82
2022/01/26 04:47:29;;;;;;;4.70;2.70;;;1.70;99.90;0.60;100814;;;;542653;262;24162;-81
2022/01/26 04:50:01;;;;;;;2.83;2.40;;;1.60;99.90;0.60;100822;;;;540219;263;25246;-83
2022/01/26 04:52:26;;;;;;;5.43;2.70;;;1.60;99.90;0.50;100816;;;;539850;263;24214;-81
2022/01/26 04:54:57;;;;;;;7.67;2.90;;;1.60;99.90;0.50;100807;;;;536215;263;24156;-81
2022/01/26 04:57:22;;;;;;;2.70;2.50;;;1.50;99.90;0.50;100806;;;;539843;263;24149;-81
2022/01/26 04:59:49;;;;;;;7.90;2.90;;;1.50;99.90;0.40;100810;;;;548123;262;24152;-80
2022/01/26 05:02:17;;;;;;;7.73;3.17;;;1.50;99.90;0.40;100802;;;;547742;262;24198;-80
2022/01/26 05:04:45;;;;;;;2.63;2.43;;;1.50;99.90;0.40;100801;;;;547494;262;24164;-83
2022/01/26 05:07:13;;;;;;;5.17;2.23;;;1.40;99.90;0.40;100796;;;;547467;262;24184;-81
2022/01/26 05:09:41;;;;;;;7.23;2.87;;;1.50;99.90;0.40;100795;;;;547452;262;24160;-81
2022/01/26 05:12:12;;;;;;;9.73;3.07;;;1.50;99.90;0.50;100789;;;;539760;264;24156;-82
2022/01/26 05:14:40;;;;;;;4.90;2.37;;;1.50;99.90;0.60;100800;;;;544193;264;25382;-83
2022/01/26 05:17:09;;;;;;;3.73;2.63;;;1.60;99.90;0.60;100797;;;;547659;261;24210;-83
2022/01/26 05:19:33;;;;;;;5.30;2.27;;;1.70;99.90;0.70;100793;;;;547045;262;24175;-83
2022/01/26 05:22:01;;;;;;;4.33;2.53;;;1.70;99.90;0.80;100797;;;;547097;262;24163;-82
2022/01/26 05:24:28;;;;;;;10.73;2.93;;;1.80;99.90;0.90;100802;;;;547218;262;24142;-82
2022/01/26 05:27:00;;;;;;;9.73;3.33;;;1.90;99.90;1.00;100789;;;;547176;262;24165;-81
2022/01/26 05:29:24;;;;;;;7.60;3.00;;;2.00;99.90;1.10;100799;;;;547056;262;24164;-82
2022/01/26 05:31:52;;;;;;;6.27;2.97;;;2.10;99.90;1.20;100788;;;;547148;262;24141;-81
2022/01/26 05:34:20;;;;;;;7.90;3.63;;;2.30;99.90;1.40;100785;;;;547057;262;24181;-81
2022/01/26 05:36:48;;;;;;;3.90;2.70;;;2.40;99.90;1.40;100783;;;;547235;262;24184;-82
2022/01/26 05:39:16;;;;;;;7.50;3.23;;;2.50;99.90;1.50;100784;;;;547256;262;24145;-80
2022/01/26 05:41:44;;;;;;;8.70;3.53;;;2.60;99.90;1.60;100787;;;;547653;262;24154;-81
2022/01/26 05:44:12;;;;;;;7.03;3.43;;;2.70;99.90;1.70;100777;;;;547236;262;24216;-83
2022/01/26 05:46:44;;;;;;;8.33;2.77;;;2.80;99.90;1.80;100783;;;;547167;262;24166;-82
2022/01/26 05:49:10;;;;;;;4.00;2.83;;;2.80;99.90;1.80;100786;;;;547082;261;24192;-82
2022/01/26 05:51:35;;;;;;;6.80;3.67;;;2.90;99.90;1.90;100784;;;;535678;264;24164;-83
2022/01/26 05:54:04;;;;;;;5.67;2.87;;;2.90;99.90;1.90;100795;;;;547160;262;26422;-83
2022/01/26 05:56:34;;;;;;;5.27;2.80;;;2.90;99.90;1.90;100787;;;;545489;263;24178;-83
2022/01/26 05:59:02;;;;;;;5.17;3.00;;;2.90;99.90;1.90;100783;;;;547916;262;24160;-82
2022/01/26 06:01:28;;;;;;;9.73;3.93;;;3.00;99.90;1.90;100790;;;;544911;260;24157;-82
2022/01/26 06:03:56;;;;;;;6.13;2.93;;;2.90;99.90;1.90;100790;;;;547615;262;24250;-82
2022/01/26 06:06:24;;;;;;;8.43;4.33;;;3.00;99.90;1.90;100797;;;;547615;262;24277;-83
2022/01/26 06:08:51;;;;;;;5.10;3.20;;;3.00;99.90;1.90;100797;;;;547566;262;24291;-80
2022/01/26 06:11:23;;;;;;;7.37;3.57;;;3.00;99.90;1.90;100801;;;;545087;262;24143;-83
2022/01/26 06:13:47;;;;;;;7.37;3.73;;;3.00;99.90;1.90;100797;;;;544827;263;24230;-82
2022/01/26 06:16:16;;;;;;;11.83;3.63;;;3.00;99.90;1.90;100792;;;;544697;262;24164;-82
2022/01/26 06:18:46;;;;;;;4.40;3.10;;;2.90;99.90;1.90;100788;;;;547424;262;24189;-82
2022/01/26 06:21:17;;;;;;;7.23;3.53;;;2.90;99.90;1.90;100788;;;;547266;262;24174;-83
2022/01/26 06:23:45;;;;;;;6.10;3.37;;;2.90;99.90;1.90;100797;;;;547255;262;24156;-83
2022/01/26 06:26:09;;;;;;;8.10;3.53;;;2.90;99.90;1.90;100792;;;;541284;262;24237;-82
2022/01/26 06:28:37;;;;;;;6.37;4.30;;;2.90;99.90;1.90;100787;;;;539734;264;24167;-82
2022/01/26 06:31:11;;;;;;;5.63;3.43;;;2.90;99.90;1.90;100782;;;;547338;262;24153;-83
2022/01/26 06:33:35;;;;;;;9.03;4.30;;;2.90;99.90;1.90;100778;;;;543970;260;24191;-83
2022/01/26 06:36:03;;;;;;;3.57;2.93;;;3.00;99.90;1.90;100775;;;;547237;262;25650;-83
2022/01/26 06:38:30;;;;;;;3.10;2.80;;;2.90;99.90;1.90;100772;;;;535854;264;24196;-82
2022/01/26 06:40:58;;;;;;;8.50;3.90;;;2.90;99.90;1.90;100769;;;;544227;263;24149;-83
2022/01/26 06:43:29;;;;;;;2.93;2.63;;;2.90;99.90;1.90;100771;;;;544207;263;24200;-83
2022/01/26 06:46:03;;;;;;;5.27;2.90;;;2.90;99.90;1.90;100770;;;;544508;263;24185;-82
2022/01/26 06:51:02;;;;;;;10.35;4.75;;;3.00;99.90;1.90;100756;;;;542470;262;35662;-83
2022/01/26 06:53:28;;;;;;;6.03;3.83;;;3.00;99.90;1.90;100760;;;;539056;264;24196;-79
2022/01/26 06:55:56;;;;;;;11.80;3.57;;;2.90;99.90;1.90;100755;;;;539267;264;24161;-83
2022/01/26 06:58:23;;;;;;;6.60;2.90;;;3.00;99.90;2.00;100749;;;;547189;261;24154;-83
2022/01/26 07:00:51;;;;;;;5.87;2.87;;;3.00;99.90;2.00;100752;;;;539271;264;24238;-81
2022/01/26 07:03:19;;;;;;;9.02;4.60;;;3.00;99.90;2.00;100745;;;;542380;262;35700;-82
2022/01/26 07:05:47;;;;;;;8.30;3.70;;;3.00;99.90;2.00;100745;;;;547256;262;24183;-82
2022/01/26 07:08:15;;;;;;;6.07;3.33;;;3.10;99.90;2.10;100743;;;;545431;259;24236;-82
2022/01/26 07:10:47;;;;;;;4.67;2.97;;;3.10;99.90;2.10;100738;;;;548027;260;24199;-80
2022/01/26 07:13:12;;;;;;;7.33;4.23;;;3.10;99.90;2.10;100735;;;;540059;263;24235;-82
2022/01/26 07:21:26;;;;;;;7.87;2.77;;;3.20;99.90;2.20;100725;;;;547617;261;24201;-83
2022/01/26 07:23:51;;;;;;;6.17;3.20;;;3.20;99.90;2.20;100739;;;;547910;260;24197;-81
2022/01/26 07:26:19;;;;;;;6.50;3.50;;;3.20;99.90;2.30;100728;;;;539603;264;24156;-80
2022/01/26 07:28:47;;;;;;;7.10;3.37;;;3.30;99.90;2.30;100728;;;;547655;262;24197;-81
2022/01/26 07:31:15;;;;;;;7.77;3.70;;;3.30;99.90;2.30;100732;;;;544442;263;24158;-82
2022/01/26 07:33:44;;;;;;;6.67;3.53;;;3.40;99.90;2.40;100725;;;;547236;262;24220;-82
2022/01/26 07:36:13;;;;;;;6.03;3.30;;;3.40;99.90;2.40;100727;;;;547370;262;24161;-82
2022/01/26 07:38:41;;;;;;;5.10;3.80;;;3.40;99.90;2.40;100725;;;;547282;262;24183;-82
2022/01/26 07:41:09;;;;;;;7.13;3.80;;;3.50;99.90;2.50;100710;;;;547386;262;24190;-82
2022/01/26 07:43:37;;;;;;;6.63;3.43;;;3.50;99.90;2.50;100718;;;;547096;262;24164;-81
2022/01/26 07:46:06;;;;;;;5.67;4.00;;;3.50;99.90;2.50;100711;;;;547040;262;24272;-80
2022/01/26 07:48:33;;;;;;;7.60;3.50;;;3.60;99.90;2.60;100710;;;;547135;261;24185;-82
2022/01/26 07:51:01;;;;;;;5.17;3.93;;;3.60;99.90;2.60;100717;;;;547085;262;24248;-81
2022/01/26 07:53:31;;;;;;;10.17;4.07;;;3.60;99.90;2.60;100710;;;;547235;262;24153;-82
2022/01/26 07:55:57;;;;;;;5.60;4.17;;;3.60;99.90;2.60;100704;;;;541140;262;24168;-81
2022/01/26 07:58:25;;;;;;;5.40;4.10;;;3.60;99.90;2.60;100703;;;;547182;262;24137;-82
2022/01/26 08:00:53;;;;;;;5.40;4.03;;;3.60;99.90;2.70;100707;;;;547073;261;24169;-80
2022/01/26 08:03:21;;;;;;;6.60;3.87;;;3.70;99.90;2.70;100698;;;;547031;262;24176;-83
2022/01/26 08:05:53;;;;;;;5.87;4.37;;;3.70;99.90;2.80;100704;;;;547148;262;24227;-83
2022/01/26 08:08:17;;;;;;;11.37;5.13;;;3.80;99.90;2.80;100697;;;;541159;264;24171;-82
2022/01/26 08:10:48;;;;;;;5.90;4.57;;;3.80;99.90;2.90;100690;;;;547273;262;24168;-83
2022/01/26 08:13:13;;;;;;;7.33;4.50;;;3.90;99.90;2.90;100690;;;;547487;261;24269;-83
2022/01/26 08:15:40;;;;;;;8.07;4.57;;;3.90;99.90;3.00;100699;;;;547485;262;24295;-82
2022/01/26 08:18:08;;;;;;;10.20;5.13;;;3.90;99.90;3.00;100709;;;;548064;260;24161;-82
2022/01/26 08:20:36;;;;;;;7.90;4.90;;;4.00;99.90;3.00;100703;;;;548128;258;24182;-83
2022/01/26 08:23:04;;;;;;;5.67;4.23;;;4.00;99.90;3.10;100702;;;;547996;262;24172;-83
2022/01/26 08:25:36;;;;;;;6.10;3.67;;;4.10;99.90;3.10;100694;;;;547850;262;24181;-83
2022/01/26 08:28:19;;;;;;;6.87;4.33;;;4.10;99.90;3.20;100687;;;;539682;263;24211;-83
2022/01/26 08:30:31;;;;;;;7.33;4.70;;;4.10;99.90;3.20;100682;;;;541951;263;24214;-82
2022/01/26 08:32:57;;;;;;;5.03;4.03;;;4.10;99.90;3.20;100690;;;;547480;260;24233;-83
2022/01/26 08:35:25;;;;;;;7.70;4.07;;;4.20;99.90;3.30;100687;;;;547566;262;24206;-84
2022/01/26 08:37:53;;;;;;;9.03;5.37;;;4.20;99.90;3.40;100684;;;;547310;262;24247;-81
2022/01/26 08:40:20;;;;;;;6.00;4.43;;;4.30;99.90;3.50;100693;;;;547406;262;24223;-82
2022/01/26 08:42:48;;;;;;;5.23;4.20;;;4.40;99.90;3.50;100700;;;;547332;262;24188;-82
2022/01/26 08:45:16;;;;;;;5.53;4.00;;;4.50;99.90;3.60;100695;;;;547225;262;24251;-83
2022/01/26 08:47:47;;;;;;;7.63;4.37;;;4.60;99.90;3.70;100685;;;;544490;263;24178;-83
2022/01/26 08:50:12;;;;;;;6.87;5.13;;;4.70;99.90;3.80;100698;;;;541388;262;24233;-83
2022/01/26 08:52:40;;;;;;;7.23;4.57;;;4.80;99.90;3.90;100693;;;;547407;262;24187;-82
2022/01/26 08:55:11;;;;;;;10.30;5.20;;;4.80;99.90;4.00;100687;;;;547134;262;24196;-83
2022/01/26 08:57:40;;;;;;;7.73;3.87;;;5.00;99.90;4.10;100690;;;;544245;263;24219;-82
2022/01/26 09:00:05;;;;;;;5.17;4.40;;;5.00;99.90;4.20;100691;;;;541192;263;24170;-80
2022/01/26 09:02:36;;;;;;;7.77;4.83;;;5.10;99.90;4.20;100686;;;;535674;264;24256;-82
2022/01/26 09:05:03;;;;;;;4.87;3.03;;;5.20;99.90;4.20;100686;;;;547012;262;24175;-83
2022/01/26 09:07:28;;;;;;;5.93;4.23;;;5.20;99.90;4.20;100695;;;;539145;264;24181;-82
2022/01/26 09:09:59;;;;;;;4.63;3.43;;;5.20;99.90;4.20;100699;;;;547298;262;24167;-82
2022/01/26 09:12:25;;;;;;;6.73;4.47;;;5.20;99.90;4.30;100692;;;;541191;262;24166;-83
2022/01/26 09:14:52;;;;;;;4.47;3.80;;;5.20;99.90;4.40;100686;;;;544523;262;24222;-82
2022/01/26 09:17:23;;;;;;;7.73;3.93;;;5.30;99.90;4.50;100682;;;;547379;258;24190;-82
2022/01/26 09:19:49;;;;;;;6.93;3.93;;;5.40;99.90;4.70;100684;;;;539378;264;24199;-83
2022/01/26 09:22:16;;;;;;;5.90;3.90;;;5.50;99.90;4.70;100687;;;;547113;262;24166;-83
2022/01/26 09:24:43;;;;;;;5.63;4.27;;;5.60;99.90;4.70;100674;;;;539314;264;24206;-83
2022/01/26 09:27:14;;;;;;;5.33;3.80;;;5.60;99.90;4.80;100676;;;;539591;264;24171;-82
2022/01/26 09:29:39;;;;;;;3.57;3.10;;;5.70;99.90;4.80;100679;;;;544677;262;24182;-82
2022/01/26 09:32:11;;;;;;;5.27;4.10;;;5.80;99.90;4.90;100667;;;;548080;261;24163;-82
2022/01/26 09:34:37;;;;;;;3.87;3.40;;;5.90;99.90;4.90;100671;;;;542000;263;24230;-82
2022/01/26 09:37:06;;;;;;;5.50;3.13;;;5.80;99.90;5.00;100666;;;;539954;263;24184;-81
2022/01/26 09:39:36;;;;;;;6.47;3.70;;;6.00;99.90;5.10;100664;;;;539803;263;24176;-82
2022/01/26 09:42:04;;;;;;;6.10;3.73;;;6.00;99.90;5.20;100660;;;;547590;260;24214;-81
2022/01/26 09:44:32;;;;;;;4.33;3.50;;;6.10;99.90;5.30;100658;;;;544800;260;24164;-83
2022/01/26 09:47:03;;;;;;;3.87;3.13;;;6.20;99.90;5.40;100664;;;;544663;260;24223;-83
2022/01/26 09:49:33;;;;;;;3.40;3.10;;;6.30;99.90;5.40;100650;;;;535702;264;24218;-82
2022/01/26 09:51:56;;;;;;;4.30;3.20;;;6.30;99.90;5.50;100650;;;;539731;264;24172;-82
2022/01/26 09:54:26;;;;;;;3.93;3.10;;;6.40;99.90;5.50;100640;;;;539431;263;24200;-82
2022/01/26 09:56:57;;;;;;;7.17;3.50;;;6.50;99.90;5.50;100635;;;;547432;259;24185;-81
2022/01/26 09:59:20;;;;;;;4.20;2.93;;;6.50;99.90;5.50;100632;;;;541409;264;24273;-85
2022/01/26 10:01:48;;;;;;;4.60;3.20;;;6.50;99.90;5.60;100616;;;;547184;262;24172;-82
2022/01/26 10:04:33;;;;;;;4.67;3.07;;;6.50;99.90;5.70;100629;;;;539679;261;24164;-83
2022/01/26 10:06:59;;;;;;;4.43;2.83;;;6.60;99.90;5.70;100627;;;;540304;264;24212;-83
2022/01/26 10:09:45;;;;;;;4.30;3.40;;;6.70;99.90;5.70;100629;;;;544005;264;24218;-82
2022/01/26 10:17:30;;;;;;;6.93;3.40;;;6.80;99.90;6.00;100604;;;;544547;259;24219;-81
2022/01/26 10:20:03;;;;;;;2.67;2.43;;;7.00;99.90;6.10;100612;;;;539091;264;24237;-85
2022/01/26 10:22:29;;;;;;;2.90;2.57;;;7.00;99.90;6.10;100606;;;;539625;264;24183;-81
2022/01/26 10:25:12;;;;;;;5.07;2.57;;;7.00;99.90;6.10;100606;;;;544387;259;24301;-82
2022/01/26 10:27:40;;;;;;;2.53;2.33;;;7.00;99.90;6.00;100612;;;;544612;263;24156;-81
2022/01/26 10:30:08;;;;;;;5.13;3.17;;;7.00;99.90;6.00;100607;;;;544690;263;24231;-83
2022/01/26 10:32:37;;;;;;;4.35;3.85;;;6.90;99.90;6.00;100606;;;;536736;262;35684;-82
2022/01/26 10:35:07;;;;;;;3.50;2.70;;;6.90;99.90;5.90;100607;;;;539653;264;24191;-81
2022/01/26 10:37:37;;;;;;;4.33;2.90;;;6.90;99.90;5.80;100608;;;;544033;259;24205;-82
2022/01/26 10:40:13;;;;;;;3.53;2.93;;;6.80;99.90;5.80;100601;;;;539297;264;24196;-81
2022/01/26 10:42:42;;;;;;;2.83;2.53;;;6.80;99.90;5.80;100602;;;;540995;258;24225;-81
2022/01/26 10:45:14;;;;;;;2.30;2.10;;;6.70;99.90;5.70;100613;;;;544946;258;24285;-84
2022/01/26 10:47:45;;;;;;;5.28;3.30;;;6.60;99.90;5.60;100600;;;;543357;260;35642;-82
2022/01/26 10:50:47;;;;;;;2.80;2.60;;;6.60;99.90;5.60;100607;;;;540229;263;24163;-81
2022/01/26 10:53:09;;;;;;;2.80;2.50;;;6.50;99.90;5.50;100599;;;;544939;262;24305;-82
2022/01/26 10:55:37;;;;;;;2.90;2.60;;;6.40;99.90;5.40;100588;;;;540137;260;24156;-82
2022/01/26 10:58:06;;;;;;;4.20;2.03;;;6.40;99.90;5.40;100600;;;;540045;263;25215;-81
2022/01/26 11:00:33;;;;;;;2.43;2.00;;;6.30;99.90;5.40;100600;;;;544165;264;28458;-81
2022/01/26 11:03:04;;;;;;;2.43;1.93;;;6.30;99.90;5.40;100603;;;;539463;261;24234;-82
2022/01/26 11:05:32;;;;;;;3.63;2.27;;;6.30;99.90;5.40;100588;;;;540379;264;24272;-82
2022/01/26 11:08:00;;;;;;;3.33;1.90;;;6.30;99.90;5.40;100589;;;;544554;260;24234;-82
2022/01/26 11:10:34;;;;;;;2.43;2.20;;;6.30;99.90;5.30;100586;;;;536230;264;24182;-82
2022/01/26 11:13:02;;;;;;;2.37;2.17;;;6.20;99.90;5.30;100574;;;;544623;260;24152;-83
2022/01/26 11:15:36;;;;;;;2.03;1.83;;;6.20;99.90;5.30;100575;;;;542104;264;24154;-82
2022/01/26 11:18:10;;;;;;;2.57;1.80;;;6.20;99.90;5.30;100583;;;;547344;262;24191;-80
2022/01/26 11:20:45;;;;;;;3.40;2.47;;;6.10;99.90;5.30;100576;;;;539853;264;24179;-81
2022/01/26 11:23:13;;;;;;;1.93;1.83;;;6.10;99.90;5.30;100578;;;;540136;261;24159;-81
2022/01/26 11:25:40;;;;;;;3.30;2.30;;;6.20;99.90;5.30;100568;;;;547689;258;24157;-82
2022/01/26 11:28:20;;;;;;;9.47;2.80;;;6.20;99.90;5.30;100565;;;;539397;264;24158;-82
2022/01/26 11:30:48;;;;;;;2.67;1.90;;;6.20;99.90;5.30;100562;;;;539620;264;24171;-80
2022/01/26 11:33:16;;;;;;;2.20;2.00;;;6.20;99.90;5.30;100560;;;;544309;261;24168;-82
2022/01/26 11:35:46;;;;;;;1.73;1.63;;;6.20;99.90;5.30;100560;;;;539361;264;24149;-82
2022/01/26 11:47:20;;;;;;;6.00;1.87;;;6.00;99.90;5.10;100546;;;;541855;263;24196;-82
2022/01/26 11:49:50;;;;;;;4.20;1.53;;;6.00;99.90;5.10;100542;;;;535973;264;24160;-80
2022/01/26 11:52:24;;;;;;;3.33;1.83;;;5.90;99.90;5.10;100538;;;;539811;262;24188;-81
2022/01/26 11:54:54;;;;;;;3.40;1.67;;;5.90;99.90;5.10;100534;;;;540553;262;24179;-81
2022/01/26 11:57:21;;;;;;;2.83;2.20;;;6.00;99.90;5.10;100532;;;;540390;263;24167;-81
2022/01/26 12:00:01;;;;;;;2.87;2.20;;;6.00;99.90;5.10;100533;;;;542199;261;24202;-81
2022/01/26 12:02:38;;;;;;;4.70;1.80;;;6.00;99.90;5.10;100516;;;;540061;260;24203;-81
2022/01/26 12:05:01;;;;;;;0.70;0.70;;;6.00;99.90;5.10;100514;;;;540402;259;24208;-82
2022/01/26 12:07:29;;;;;;;4.30;2.07;;;6.00;99.90;5.10;100518;;;;540223;263;24179;-82
2022/01/26 12:09:57;;;;;;;2.07;1.83;;;6.00;99.90;5.20;100502;;;;539918;263;24210;-81
2022/01/26 12:12:25;;;;;;;2.93;1.80;;;6.10;99.90;5.20;100503;;;;547447;262;24158;-82
2022/01/26 12:15:02;;;;;;;2.63;1.93;;;6.10;99.90;5.20;100488;;;;541483;264;24163;-81
2022/01/26 12:17:35;;;;;;;2.33;1.80;;;6.10;99.90;5.20;100507;;;;540484;263;25203;-81
2022/01/26 12:32:04;;;;;;;1.80;1.30;;;6.10;99.90;5.20;100491;;;;547720;262;24154;-81
2022/01/26 12:36:35;;;;;;;1.57;1.30;;;5.70;99.90;4.80;100454;;;;547316;262;24153;-81
2022/01/26 12:39:00;;;;;;;2.33;1.37;;;5.70;99.90;4.80;100449;;;;540667;264;24182;-82
2022/01/26 12:41:36;;;;;;;1.83;1.37;;;5.70;99.90;4.90;100443;;;;539499;264;24175;-81
2022/01/26 12:44:08;;;;;;;1.57;1.43;;;5.80;99.90;4.90;100450;;;;547217;262;24189;-82
2022/01/26 12:46:38;;;;;;;3.03;1.60;;;5.80;99.90;4.90;100441;;;;539644;260;24168;-83
2022/01/26 12:49:15;;;;;;;1.70;1.60;;;5.80;99.90;4.90;100447;;;;546958;262;24176;-82
2022/01/26 12:51:53;;;;;;;3.63;1.83;;;5.80;99.90;4.90;100445;;;;544433;263;24161;-82
2022/01/26 12:54:20;;;;;;;2.33;1.73;;;5.80;99.90;4.90;100430;;;;531248;264;35644;-82
2022/01/26 12:56:48;;;;;;;3.00;1.70;;;5.80;99.90;4.80;100433;;;;539546;264;24188;-83
2022/01/26 12:59:22;;;;;;;2.00;1.70;;;5.70;99.90;4.80;100444;;;;541453;262;24148;-83
2022/01/26 13:01:57;;;;;;;2.03;1.07;;;5.70;99.90;4.70;100428;;;;544414;263;24172;-82
2022/01/26 13:04:22;;;;;;;1.73;1.40;;;5.60;99.90;4.60;100430;;;;540087;257;24182;-81
2022/01/26 13:06:51;;;;;;;1.67;1.30;;;5.60;99.90;4.50;100433;;;;548441;261;24176;-81
2022/01/26 13:09:21;;;;;;;2.70;2.00;;;5.40;99.90;4.40;100424;;;;540166;263;24182;-81
2022/01/26 13:11:49;;;;;;;6.17;2.27;;;5.40;99.90;4.40;100402;;;;540333;263;24176;-82
2022/01/26 13:14:31;;;;;;;2.67;2.10;;;5.30;99.90;4.40;100400;;;;544905;263;25197;-82
2022/01/26 13:19:47;;;;;;;3.13;1.80;;;5.30;99.90;4.40;100398;;;;542333;263;24153;-82
2022/01/26 13:25:04;;;;;;;2.13;1.40;;;5.20;99.90;4.30;100392;;;;544948;263;24163;-82
2022/01/26 13:27:38;;;;;;;4.30;1.67;;;5.20;99.90;4.30;100391;;;;544170;262;24161;-81
2022/01/26 13:32:53;;;;;;;1.10;0.93;;;5.20;99.90;4.30;100383;;;;540272;262;24216;-81
2022/01/26 13:35:34;;;;;;;1.27;1.17;;;5.20;99.90;4.30;100387;;;;538569;264;24212;-80
2022/01/26 13:38:05;;;;;;;2.87;1.60;;;5.30;99.90;4.40;100374;;;;541600;264;24166;-81